createdAt,value
2018-04-19T00:01:04.766Z,13.70
2018-04-19T00:03:32.684Z,13.30
2018-04-19T00:06:00.348Z,12.57
2018-04-19T00:08:27.964Z,12.48
2018-04-19T00:10:55.621Z,11.70
2018-04-19T00:13:23.240Z,12.70
2018-04-19T00:15:50.896Z,12.43
2018-04-19T00:18:18.529Z,13.32
2018-04-19T00:20:46.229Z,12.97
2018-04-19T00:23:13.836Z,12.77
2018-04-19T00:25:41.488Z,13.30
2018-04-19T00:28:09.154Z,11.45
2018-04-19T00:30:36.768Z,12.47
2018-04-19T00:33:04.997Z,11.07
2018-04-19T00:35:32.616Z,12.43
2018-04-19T00:38:00.273Z,13.20
2018-04-19T00:40:27.944Z,12.32
2018-04-19T00:42:55.559Z,12.07
2018-04-19T00:45:23.219Z,11.35
2018-04-19T00:47:51.060Z,11.40
2018-04-19T00:50:18.718Z,11.00
2018-04-19T00:52:58.380Z,11.10
2018-04-19T00:55:26.639Z,10.70
2018-04-19T00:57:54.262Z,9.87
2018-04-19T01:00:21.931Z,10.57
2018-04-19T01:02:49.599Z,11.13
2018-04-19T01:05:17.257Z,12.23
2018-04-19T01:07:44.912Z,9.67
2018-04-19T01:10:12.638Z,11.43
2018-04-19T01:12:40.239Z,10.87
2018-04-19T01:15:08.687Z,10.43
2018-04-19T01:17:36.343Z,9.83
2018-04-19T01:20:04.752Z,11.37
2018-04-19T01:22:32.367Z,13.77
2018-04-19T01:25:01.543Z,11.57
2018-04-19T01:27:29.207Z,12.37
2018-04-19T01:29:56.832Z,12.40
2018-04-19T01:32:24.487Z,11.83
2018-04-19T01:34:52.111Z,12.00
2018-04-19T01:37:19.767Z,12.82
2018-04-19T01:39:48.156Z,12.60
2018-04-19T01:42:15.828Z,10.82
2018-04-19T01:44:44.255Z,12.88
2018-04-19T01:47:11.880Z,11.95
2018-04-19T01:49:39.530Z,12.13
2018-04-19T01:52:07.147Z,13.52
2018-04-19T01:54:35.533Z,14.75
2018-04-19T01:57:03.369Z,14.10
2018-04-19T01:59:31.015Z,12.20
2018-04-19T02:01:58.671Z,13.13
2018-04-19T02:04:26.327Z,14.80
2018-04-19T02:06:54.578Z,15.73
2018-04-19T02:09:22.199Z,16.23
2018-04-19T02:11:49.855Z,15.03
2018-04-19T02:14:17.467Z,16.47
2018-04-19T02:16:45.124Z,16.17
2018-04-19T02:19:12.854Z,16.77
2018-04-19T02:21:40.454Z,15.73
2018-04-19T02:24:08.115Z,15.07
2018-04-19T02:26:35.731Z,14.57
2018-04-19T02:29:03.592Z,15.10
2018-04-19T02:31:31.243Z,14.50
2018-04-19T02:33:58.863Z,15.65
2018-04-19T02:36:26.571Z,14.03
2018-04-19T02:38:54.200Z,15.07
2018-04-19T02:41:21.855Z,16.17
2018-04-19T02:43:49.639Z,16.42
2018-04-19T02:46:17.665Z,15.50
2018-04-19T02:48:46.621Z,15.90
2018-04-19T02:51:14.245Z,14.30
2018-04-19T02:53:41.940Z,14.90
2018-04-19T02:56:09.571Z,13.00
2018-04-19T02:58:37.231Z,14.60
2018-04-19T03:01:04.890Z,15.33
2018-04-19T03:03:32.532Z,14.13
2018-04-19T03:06:00.183Z,14.30
2018-04-19T03:08:27.800Z,15.30
2018-04-19T03:10:55.440Z,13.73
2018-04-19T03:13:23.099Z,14.33
2018-04-19T03:15:50.707Z,16.87
2018-04-19T03:18:19.127Z,15.20
2018-04-19T03:20:46.751Z,16.60
2018-04-19T03:23:14.407Z,15.07
2018-04-19T03:25:42.823Z,16.30
2018-04-19T03:28:10.443Z,15.53
2018-04-19T03:30:38.095Z,15.90
2018-04-19T03:33:05.756Z,15.57
2018-04-19T03:35:33.415Z,13.90
2018-04-19T03:38:01.064Z,14.07
2018-04-19T03:40:28.775Z,13.60
2018-04-19T03:42:56.435Z,12.60
2018-04-19T03:45:24.050Z,13.73
2018-04-19T03:47:52.439Z,13.47
2018-04-19T03:50:20.804Z,13.20
2018-04-19T03:52:48.533Z,13.13
2018-04-19T03:55:16.199Z,12.25
2018-04-19T03:57:43.979Z,14.60
2018-04-19T04:00:11.599Z,12.95
2018-04-19T04:02:39.502Z,13.30
2018-04-19T04:05:07.119Z,12.07
2018-04-19T04:07:34.779Z,13.70
2018-04-19T04:10:02.402Z,14.43
2018-04-19T04:12:30.060Z,14.50
2018-04-19T04:14:57.675Z,13.48
2018-04-19T04:17:37.232Z,14.00
2018-04-19T04:20:17.964Z,13.10
2018-04-19T04:22:58.105Z,14.67
2018-04-19T04:25:25.771Z,14.30
2018-04-19T04:27:54.631Z,13.57
2018-04-19T04:30:24.036Z,13.33
2018-04-19T04:32:51.705Z,12.50
2018-04-19T04:35:21.144Z,13.27
2018-04-19T04:37:49.001Z,13.27
2018-04-19T04:40:16.631Z,14.27
2018-04-19T04:42:45.015Z,13.52
2018-04-19T04:45:12.721Z,13.93
2018-04-19T04:47:43.496Z,22.77
2018-04-19T04:50:12.247Z,15.27
2018-04-19T04:52:40.818Z,13.70
2018-04-19T04:55:08.484Z,15.00
2018-04-19T04:57:36.989Z,13.38
2018-04-19T05:00:05.936Z,11.43
2018-04-19T05:02:33.567Z,11.32
2018-04-19T05:05:01.184Z,12.57
2018-04-19T05:07:30.659Z,11.32
2018-04-19T05:09:58.283Z,11.70
2018-04-19T05:12:25.955Z,12.73
2018-04-19T05:14:53.585Z,12.37
2018-04-19T05:17:22.056Z,10.37
2018-04-19T05:19:53.879Z,10.50
2018-04-19T05:22:21.699Z,10.55
2018-04-19T05:24:49.351Z,10.20
2018-04-19T05:27:18.822Z,9.43
2018-04-19T05:29:47.862Z,9.37
2018-04-19T05:32:15.519Z,10.50
2018-04-19T05:34:43.900Z,8.45
2018-04-19T05:37:12.356Z,7.60
2018-04-19T05:39:40.775Z,8.37
2018-04-19T05:42:08.395Z,8.10
2018-04-19T05:44:36.662Z,8.97
2018-04-19T05:47:04.337Z,8.23
2018-04-19T05:49:33.261Z,8.67
2018-04-19T05:52:03.944Z,9.30
2018-04-19T05:54:32.635Z,8.00
2018-04-19T05:57:01.843Z,8.77
2018-04-19T05:59:30.231Z,8.13
2018-04-19T06:01:57.972Z,9.20
2018-04-19T06:04:26.399Z,8.37
2018-04-19T06:06:54.080Z,8.67
2018-04-19T06:09:21.743Z,8.63
2018-04-19T06:11:49.407Z,8.10
2018-04-19T06:14:17.028Z,7.93
2018-04-19T06:16:44.912Z,8.40
2018-04-19T06:19:12.529Z,8.73
2018-04-19T06:21:40.184Z,8.70
2018-04-19T06:24:08.487Z,9.40
2018-04-19T06:26:36.151Z,10.53
2018-04-19T06:29:03.788Z,9.60
2018-04-19T06:31:31.455Z,9.90
2018-04-19T06:33:59.276Z,10.87
2018-04-19T06:36:26.911Z,10.18
2018-04-19T06:38:54.567Z,9.43
2018-04-19T06:41:22.377Z,10.82
2018-04-19T06:43:50.219Z,9.47
2018-04-19T06:46:17.840Z,9.87
2018-04-19T06:48:45.519Z,9.53
2018-04-19T06:51:13.146Z,10.83
2018-04-19T06:53:41.577Z,9.43
2018-04-19T06:56:09.187Z,9.70
2018-04-19T06:58:37.623Z,10.23
2018-04-19T07:01:05.282Z,10.07
2018-04-19T07:03:34.851Z,10.30
2018-04-19T07:06:02.519Z,10.37
2018-04-19T07:08:30.138Z,10.50
2018-04-19T07:10:57.791Z,11.30
2018-04-19T07:13:25.743Z,11.10
2018-04-19T07:15:53.422Z,10.23
2018-04-19T07:18:21.084Z,10.80
2018-04-19T07:20:50.455Z,9.67
2018-04-19T07:23:18.159Z,11.60
2018-04-19T07:25:45.817Z,10.90
2018-04-19T07:28:13.854Z,12.35
2018-04-19T07:30:41.474Z,10.90
2018-04-19T07:33:09.111Z,11.40
2018-04-19T07:35:37.538Z,11.27
2018-04-19T07:38:05.218Z,11.43
2018-04-19T07:40:32.980Z,10.90
2018-04-19T07:43:00.604Z,12.87
2018-04-19T07:45:28.509Z,11.87
2018-04-19T07:47:56.148Z,10.87
2018-04-19T07:50:23.785Z,11.50
2018-04-19T07:52:51.576Z,12.83
2018-04-19T07:55:19.232Z,11.07
2018-04-19T07:57:46.892Z,12.43
2018-04-19T08:00:14.878Z,11.63
2018-04-19T08:02:42.535Z,11.70
2018-04-19T08:05:10.191Z,13.13
2018-04-19T08:07:37.849Z,11.53
2018-04-19T08:10:05.510Z,11.10
2018-04-19T08:12:33.118Z,13.27
2018-04-19T08:15:00.783Z,12.13
2018-04-19T08:17:29.227Z,12.50
2018-04-19T08:19:56.862Z,12.37
2018-04-19T08:22:24.522Z,13.20
2018-04-19T08:24:52.151Z,12.80
2018-04-19T08:27:19.827Z,12.60
2018-04-19T08:29:47.623Z,11.47
2018-04-19T08:32:15.280Z,13.23
2018-04-19T08:34:42.939Z,12.67
2018-04-19T08:37:10.557Z,13.00
2018-04-19T08:39:38.227Z,13.00
2018-04-19T08:42:06.567Z,14.37
2018-04-19T08:44:34.317Z,12.13
2018-04-19T08:47:01.975Z,13.27
2018-04-19T08:49:29.635Z,13.88
2018-04-19T08:51:57.303Z,13.60
2018-04-19T08:54:24.943Z,13.10
2018-04-19T08:56:52.595Z,12.87
2018-04-19T08:59:20.251Z,13.20
2018-04-19T09:01:47.905Z,13.57
2018-04-19T09:04:15.517Z,14.77
2018-04-19T09:06:43.203Z,13.60
2018-04-19T09:09:10.820Z,12.40
2018-04-19T09:11:38.438Z,12.17
2018-04-19T09:14:06.824Z,12.27
2018-04-19T09:16:34.484Z,12.97
2018-04-19T09:19:02.148Z,12.13
2018-04-19T09:21:29.992Z,12.50
2018-04-19T09:23:57.648Z,12.80
2018-04-19T09:26:25.300Z,13.43
2018-04-19T09:28:52.958Z,13.60
2018-04-19T09:31:20.777Z,12.67
2018-04-19T09:33:48.444Z,11.87
2018-04-19T09:36:16.071Z,13.70
2018-04-19T09:38:43.723Z,15.40
2018-04-19T09:41:11.384Z,12.83
2018-04-19T09:43:39.012Z,12.70
2018-04-19T09:46:07.451Z,13.03
2018-04-19T09:48:35.078Z,11.57
2018-04-19T09:51:02.736Z,12.73
2018-04-19T09:53:30.392Z,11.90
2018-04-19T09:55:58.008Z,11.60
2018-04-19T09:58:25.672Z,13.80
2018-04-19T10:00:58.926Z,13.90
2018-04-19T10:03:26.609Z,12.67
2018-04-19T10:06:00.002Z,14.07
2018-04-19T10:08:27.669Z,13.87
2018-04-19T10:10:55.322Z,13.80
2018-04-19T10:13:22.976Z,13.43
2018-04-19T10:15:50.650Z,14.63
2018-04-19T10:18:18.501Z,13.47
2018-04-19T10:20:46.123Z,14.70
2018-04-19T10:23:13.743Z,14.07
2018-04-19T10:25:41.400Z,14.40
2018-04-19T10:28:10.387Z,14.98
2018-04-19T10:30:38.703Z,14.80
2018-04-19T10:33:06.321Z,15.40
2018-04-19T10:35:34.753Z,14.77
2018-04-19T10:38:02.371Z,13.60
2018-04-19T10:40:30.034Z,13.90
2018-04-19T10:42:57.659Z,14.20
2018-04-19T10:45:25.316Z,13.10
2018-04-19T10:47:52.928Z,13.90
2018-04-19T10:50:20.591Z,12.90
2018-04-19T10:52:48.983Z,12.20
2018-04-19T10:55:16.655Z,13.20
2018-04-19T10:57:44.461Z,13.30
2018-04-19T11:00:12.351Z,13.32
2018-04-19T11:02:39.975Z,12.70
2018-04-19T11:05:07.819Z,12.63
2018-04-19T11:07:35.438Z,13.30
2018-04-19T11:10:03.272Z,12.73
2018-04-19T11:12:31.125Z,12.47
2018-04-19T11:14:58.747Z,13.57
2018-04-19T11:17:26.372Z,12.67
2018-04-19T11:19:54.984Z,13.13
2018-04-19T11:22:22.800Z,10.90
2018-04-19T11:24:50.463Z,11.07
2018-04-19T11:27:18.127Z,11.80
2018-04-19T11:29:45.758Z,10.33
2018-04-19T11:32:13.417Z,11.90
2018-04-19T11:34:41.067Z,11.00
2018-04-19T11:37:08.967Z,11.53
2018-04-19T11:39:36.590Z,12.20
2018-04-19T11:42:04.215Z,10.90
2018-04-19T11:44:32.697Z,11.50
2018-04-19T11:47:00.373Z,11.40
2018-04-19T11:49:28.048Z,11.73
2018-04-19T11:51:55.704Z,11.33
2018-04-19T11:54:23.336Z,11.93
2018-04-19T11:56:51.770Z,9.93
2018-04-19T11:59:19.420Z,9.80
2018-04-19T12:01:47.389Z,9.67
2018-04-19T12:04:15.004Z,7.97
2018-04-19T12:06:42.685Z,9.47
2018-04-19T12:09:10.303Z,9.30
2018-04-19T12:11:37.968Z,8.93
2018-04-19T12:14:05.593Z,9.07
2018-04-19T12:16:33.360Z,9.00
2018-04-19T12:19:00.977Z,8.40
2018-04-19T12:21:28.635Z,8.50
2018-04-19T12:23:56.255Z,9.10
2018-04-19T12:26:25.495Z,9.33
2018-04-19T12:28:53.155Z,8.60
2018-04-19T12:31:20.763Z,9.60
2018-04-19T12:33:48.375Z,8.13
2018-04-19T12:36:16.025Z,8.13
2018-04-19T12:38:44.406Z,8.53
2018-04-19T12:41:13.493Z,8.77
2018-04-19T12:43:41.111Z,7.90
2018-04-19T12:46:09.539Z,8.20
2018-04-19T12:48:37.931Z,6.80
2018-04-19T12:51:05.583Z,8.63
2018-04-19T12:53:33.198Z,8.30
2018-04-19T12:56:00.844Z,8.43
2018-04-19T12:58:28.507Z,7.75
2018-04-19T13:00:56.332Z,6.53
2018-04-19T13:03:23.983Z,7.93
2018-04-19T13:05:51.603Z,7.17
2018-04-19T13:08:19.479Z,9.38
2018-04-19T13:10:47.140Z,7.77
2018-04-19T13:13:14.797Z,7.43
2018-04-19T13:15:42.413Z,6.70
2018-04-19T13:18:11.400Z,6.75
2018-04-19T13:20:39.761Z,6.97
2018-04-19T13:23:07.388Z,8.00
2018-04-19T13:25:36.574Z,7.47
2018-04-19T13:28:04.200Z,6.50
2018-04-19T13:30:31.872Z,7.00
2018-04-19T13:32:59.492Z,7.33
2018-04-19T13:35:27.920Z,6.70
2018-04-19T13:37:55.532Z,7.20
2018-04-19T13:40:23.198Z,7.83
2018-04-19T13:42:50.859Z,8.17
2018-04-19T13:45:18.517Z,7.47
2018-04-19T13:47:46.132Z,7.27
2018-04-19T13:50:13.779Z,6.77
2018-04-19T13:52:41.432Z,7.53
2018-04-19T13:55:09.080Z,7.10
2018-04-19T13:57:36.704Z,7.90
2018-04-19T14:00:04.347Z,6.97
2018-04-19T14:02:32.003Z,7.63
2018-04-19T14:04:59.620Z,6.20
2018-04-19T14:07:27.316Z,7.87
2018-04-19T14:09:54.943Z,7.45
2018-04-19T14:12:22.595Z,6.97
2018-04-19T14:14:50.279Z,7.83
2018-04-19T14:17:17.931Z,6.90
2018-04-19T14:19:45.591Z,6.63
2018-04-19T14:22:13.284Z,6.70
2018-04-19T14:24:40.898Z,6.53
2018-04-19T14:27:09.337Z,6.80
2018-04-19T14:29:37.164Z,5.50
2018-04-19T14:32:04.803Z,6.53
2018-04-19T14:34:32.467Z,6.80
2018-04-19T14:37:00.081Z,7.33
2018-04-19T14:39:27.692Z,6.80
2018-04-19T14:41:55.353Z,6.10
2018-04-19T14:44:22.959Z,7.13
2018-04-19T14:46:50.619Z,5.90
2018-04-19T14:49:18.321Z,5.77
2018-04-19T14:51:46.685Z,5.77
2018-04-19T14:54:14.474Z,6.70
2018-04-19T14:56:42.119Z,6.70
2018-04-19T14:59:09.732Z,6.50
2018-04-19T15:01:37.376Z,6.53
2018-04-19T15:04:05.586Z,6.37
2018-04-19T15:06:33.524Z,6.30
2018-04-19T15:09:01.150Z,6.17
2018-04-19T15:11:28.800Z,6.50
2018-04-19T15:13:56.797Z,5.73
2018-04-19T15:16:24.450Z,6.93
2018-04-19T15:18:52.119Z,5.90
2018-04-19T15:21:19.742Z,6.07
2018-04-19T15:23:47.372Z,5.03
2018-04-19T15:26:15.202Z,5.60
2018-04-19T15:28:42.840Z,5.47
2018-04-19T15:31:11.089Z,5.60
2018-04-19T15:33:38.756Z,5.73
2018-04-19T15:36:06.964Z,6.00
2018-04-19T15:38:34.612Z,5.20
2018-04-19T15:41:02.509Z,5.30
2018-04-19T15:43:30.197Z,5.13
2018-04-19T15:45:57.860Z,6.30
2018-04-19T15:48:26.284Z,5.60
2018-04-19T15:50:53.911Z,5.10
2018-04-19T15:53:22.337Z,4.53
2018-04-19T15:55:50.050Z,5.70
2018-04-19T15:58:18.497Z,5.50
2018-04-19T16:00:46.915Z,5.70
2018-04-19T16:03:15.117Z,5.40
2018-04-19T16:05:44.309Z,5.72
2018-04-19T16:08:12.927Z,5.70
2018-04-19T16:10:40.576Z,5.37
2018-04-19T16:13:12.330Z,5.60
2018-04-19T16:15:39.995Z,5.70
2018-04-19T16:18:08.779Z,5.58
2018-04-19T16:20:36.427Z,5.73
2018-04-19T16:23:04.038Z,4.70
2018-04-19T16:25:32.688Z,5.50
2018-04-19T16:28:00.299Z,5.57
2018-04-19T16:30:28.559Z,6.00
2018-04-19T16:32:57.170Z,5.40
2018-04-19T16:35:24.828Z,5.50
2018-04-19T16:37:52.448Z,6.27
2018-04-19T16:40:20.914Z,5.70
2018-04-19T16:42:48.583Z,5.50
2018-04-19T16:45:17.248Z,6.50
2018-04-19T16:47:44.859Z,6.03
2018-04-19T16:50:12.579Z,6.60
2018-04-19T16:52:40.216Z,6.47
2018-04-19T16:55:07.985Z,5.97
2018-04-19T16:57:35.651Z,6.50
2018-04-19T17:00:03.279Z,6.53
2018-04-19T17:02:30.931Z,6.10
2018-04-19T17:04:58.601Z,6.17
2018-04-19T17:07:26.268Z,6.40
2018-04-19T17:09:53.963Z,6.83
2018-04-19T17:12:22.267Z,6.83
2018-04-19T17:14:49.989Z,6.60
2018-04-19T17:17:17.576Z,6.03
2018-04-19T17:19:45.970Z,5.97
2018-04-19T17:22:13.643Z,5.27
2018-04-19T17:24:41.265Z,5.77
2018-04-19T17:27:09.656Z,5.67
2018-04-19T17:29:37.307Z,5.80
2018-04-19T17:32:05.687Z,6.13
2018-04-19T17:34:34.989Z,6.80
2018-04-19T17:37:02.601Z,5.97
2018-04-19T17:39:30.212Z,7.40
2018-04-19T17:41:58.638Z,7.13
2018-04-19T17:44:26.249Z,6.33
2018-04-19T17:46:53.903Z,6.33
2018-04-19T17:49:21.632Z,6.80
2018-04-19T17:51:49.286Z,7.00
2018-04-19T17:54:16.891Z,6.00
2018-04-19T17:56:44.548Z,5.97
2018-04-19T17:59:12.190Z,6.23
2018-04-19T18:01:39.814Z,6.20
2018-04-19T18:04:07.463Z,6.13
2018-04-19T18:06:35.088Z,6.30
2018-04-19T18:09:02.765Z,6.33
2018-04-19T18:11:30.393Z,6.03
2018-04-19T18:13:58.016Z,6.70
2018-04-19T18:16:26.484Z,6.25
2018-04-19T18:18:54.109Z,6.80
2018-04-19T18:21:23.097Z,7.50
2018-04-19T18:23:51.755Z,6.27
2018-04-19T18:26:19.510Z,6.28
2018-04-19T18:28:47.159Z,6.10
2018-04-19T18:31:14.779Z,6.83
2018-04-19T18:33:42.431Z,7.10
2018-04-19T18:36:10.262Z,6.50
2018-04-19T18:38:37.913Z,6.60
2018-04-19T18:41:05.527Z,6.50
2018-04-19T18:43:33.171Z,6.78
2018-04-19T18:46:00.784Z,7.00
2018-04-19T18:48:28.453Z,7.18
2018-04-19T18:50:56.067Z,7.20
2018-04-19T18:53:23.694Z,7.57
2018-04-19T18:55:51.345Z,7.33
2018-04-19T18:58:19.004Z,8.08
2018-04-19T19:00:46.643Z,7.60
2018-04-19T19:03:14.302Z,7.75
2018-04-19T19:05:41.968Z,8.43
2018-04-19T19:08:10.300Z,8.40
2018-04-19T19:10:38.752Z,8.93
2018-04-19T19:13:06.378Z,10.53
2018-04-19T19:18:54.453Z,10.90
2018-04-19T19:21:22.102Z,11.30
2018-04-19T19:23:49.720Z,10.90
2018-04-19T19:26:17.767Z,10.70
2018-04-19T19:28:46.198Z,11.50
2018-04-19T19:31:13.807Z,9.70
2018-04-19T19:33:41.458Z,10.00
2018-04-19T19:36:10.001Z,10.60
2018-04-19T19:38:37.675Z,11.43
2018-04-19T19:41:05.283Z,9.98
2018-04-19T19:43:33.668Z,12.02
2018-04-19T19:46:01.345Z,11.60
2018-04-19T19:48:29.046Z,10.77
2018-04-19T19:50:56.668Z,9.65
2018-04-19T19:53:24.668Z,9.98
2018-04-19T19:55:52.432Z,9.37
2018-04-19T19:58:20.092Z,9.50
2018-04-19T20:00:47.715Z,10.10
2018-04-19T20:03:15.367Z,10.20
2018-04-19T20:05:43.270Z,9.83
2018-04-19T20:08:12.081Z,10.02
2018-04-19T20:10:39.739Z,9.30
2018-04-19T20:13:07.383Z,9.83
2018-04-19T20:15:35.048Z,9.30
2018-04-19T20:18:02.668Z,9.70
2018-04-19T20:20:30.324Z,9.25
2018-04-19T20:22:57.966Z,9.40
2018-04-19T20:25:25.588Z,9.80
2018-04-19T20:27:53.347Z,9.03
2018-04-19T20:30:21.007Z,10.33
2018-04-19T20:32:48.658Z,10.50
2018-04-19T20:35:16.271Z,9.60
2018-04-19T20:37:43.932Z,9.83
2018-04-19T20:40:11.588Z,10.40
2018-04-19T20:42:40.013Z,10.07
2018-04-19T20:45:08.505Z,10.63
2018-04-19T20:47:36.124Z,10.40
2018-04-19T20:50:03.744Z,10.60
2018-04-19T20:52:31.411Z,9.33
2018-04-19T20:54:59.060Z,9.83
2018-04-19T20:57:26.727Z,10.10
2018-04-19T20:59:54.380Z,10.20
2018-04-19T21:02:22.000Z,9.97
2018-04-19T21:04:49.658Z,10.00
2018-04-19T21:07:17.276Z,9.90
2018-04-19T21:09:45.731Z,10.20
2018-04-19T21:12:13.347Z,11.00
2018-04-19T21:14:40.963Z,11.50
2018-04-19T21:17:09.396Z,11.13
2018-04-19T21:19:37.335Z,11.00
2018-04-19T21:22:05.976Z,11.93
2018-04-19T21:24:33.649Z,10.13
2018-04-19T21:27:01.289Z,11.85
2018-04-19T21:29:28.930Z,11.30
2018-04-19T21:31:56.575Z,12.00
2018-04-19T21:34:24.190Z,12.67
2018-04-19T21:36:51.847Z,12.52
2018-04-19T21:39:21.477Z,12.30
2018-04-19T21:41:49.134Z,12.07
2018-04-19T21:44:16.951Z,12.63
2018-04-19T21:46:44.616Z,12.37
2018-04-19T21:49:12.397Z,12.37
2018-04-19T21:51:40.445Z,13.00
2018-04-19T21:54:08.061Z,12.15
2018-04-19T21:56:36.236Z,12.52
2018-04-19T21:59:04.271Z,12.35
2018-04-19T22:01:32.178Z,12.35
2018-04-19T22:04:00.927Z,12.00
2018-04-19T22:06:28.595Z,12.47
2018-04-19T22:08:58.251Z,12.67
2018-04-19T22:11:26.201Z,12.00
2018-04-19T22:13:55.030Z,12.77
2018-04-19T22:16:23.212Z,11.83
2018-04-19T22:18:52.015Z,11.70
2018-04-19T22:21:21.655Z,11.53
2018-04-19T22:23:49.662Z,11.90
2018-04-19T22:26:21.370Z,12.37
2018-04-19T22:28:49.836Z,11.47
2018-04-19T22:31:18.216Z,11.80
2018-04-19T22:33:45.971Z,12.70
2018-04-19T22:36:15.271Z,12.03
2018-04-19T22:38:43.863Z,12.30
2018-04-19T22:41:12.259Z,12.77
2018-04-19T22:43:40.247Z,12.20
2018-04-19T22:46:07.935Z,11.50
2018-04-19T22:48:35.555Z,12.20
2018-04-19T22:51:03.480Z,11.10
2018-04-19T22:53:33.127Z,12.53
2018-04-19T22:56:00.765Z,12.50
2018-04-19T22:58:28.474Z,13.55
2018-04-19T23:00:57.001Z,12.93
2018-04-19T23:03:24.839Z,11.50
2018-04-19T23:05:52.456Z,13.40
2018-04-19T23:08:20.124Z,12.07
2018-04-19T23:10:47.823Z,12.57
2018-04-19T23:13:15.479Z,12.33
2018-04-19T23:15:43.111Z,12.70
2018-04-19T23:18:11.014Z,12.20
2018-04-19T23:20:40.091Z,13.20
2018-04-19T23:23:07.756Z,13.43
2018-04-19T23:25:35.403Z,13.13
2018-04-19T23:28:03.166Z,12.67
2018-04-19T23:30:31.194Z,13.13
2018-04-19T23:32:59.572Z,13.02
2018-04-19T23:35:30.375Z,13.67
2018-04-19T23:37:58.043Z,12.13
2018-04-19T23:40:25.674Z,12.27
2018-04-19T23:42:53.524Z,12.85
2018-04-19T23:45:21.215Z,12.50
2018-04-19T23:47:50.512Z,12.15
2018-04-19T23:50:18.562Z,11.50
2018-04-19T23:52:46.183Z,12.75
2018-04-19T23:55:13.872Z,13.18
2018-04-19T23:57:43.569Z,12.73
